createdAt,value
2023-04-28T00:02:02.140Z,14.60
2023-04-28T00:04:30.231Z,1.00
2023-04-28T00:06:58.264Z,9.60
2023-04-28T00:09:26.150Z,19.30
2023-04-28T00:11:54.041Z,24.10
2023-04-28T00:14:23.355Z,24.80
2023-04-28T00:16:51.295Z,19.00
2023-04-28T00:19:19.278Z,20.60
2023-04-28T00:21:47.207Z,13.60
2023-04-28T00:24:15.395Z,16.40
2023-04-28T00:26:43.371Z,8.60
2023-04-28T00:29:11.212Z,3.90
2023-04-28T00:31:40.460Z,10.80
2023-04-28T00:34:08.328Z,15.50
2023-04-28T00:36:36.205Z,21.30
2023-04-28T00:39:04.034Z,16.30
2023-04-28T00:41:31.880Z,12.80
2023-04-28T00:43:59.718Z,15.40
2023-04-28T00:46:29.104Z,11.10
2023-04-28T00:48:58.615Z,15.10
2023-04-28T00:51:27.651Z,14.60
2023-04-28T00:53:55.790Z,11.80
2023-04-28T00:56:23.685Z,9.40
2023-04-28T00:58:51.583Z,15.80
2023-04-28T01:01:19.486Z,15.90
2023-04-28T01:03:48.358Z,20.70
2023-04-28T01:06:18.295Z,34.10
2023-04-28T01:08:49.237Z,33.70
2023-04-28T01:11:17.435Z,38.10
2023-04-28T01:13:45.762Z,35.00
2023-04-28T01:16:13.701Z,28.90
2023-04-28T01:18:43.801Z,31.20
2023-04-28T01:21:11.717Z,33.10
2023-04-28T01:23:41.027Z,29.50
2023-04-28T01:26:10.226Z,43.60
2023-04-28T01:28:38.068Z,31.80
2023-04-28T01:31:05.987Z,29.90
2023-04-28T01:33:33.892Z,19.30
2023-04-28T01:36:01.867Z,30.90
2023-04-28T01:38:29.731Z,19.10
2023-04-28T01:40:58.527Z,22.90
2023-04-28T01:43:27.800Z,24.90
2023-04-28T01:45:55.660Z,27.10
2023-04-28T01:48:23.538Z,25.40
2023-04-28T01:50:51.430Z,30.10
2023-04-28T01:53:20.619Z,16.30
2023-04-28T01:55:48.472Z,22.50
2023-04-28T01:58:16.295Z,22.00
2023-04-28T02:00:45.712Z,30.60
2023-04-28T02:03:13.705Z,27.20
2023-04-28T02:05:41.738Z,23.00
2023-04-28T02:08:09.662Z,23.90
2023-04-28T02:10:37.525Z,29.30
2023-04-28T02:13:05.421Z,19.80
2023-04-28T02:15:33.269Z,33.30
2023-04-28T02:18:02.530Z,29.20
2023-04-28T02:20:31.891Z,28.60
2023-04-28T02:23:01.080Z,28.50
2023-04-28T02:25:28.977Z,30.90
2023-04-28T02:27:57.358Z,29.90
2023-04-28T02:30:25.191Z,25.50
2023-04-28T02:32:53.159Z,17.00
2023-04-28T02:35:22.437Z,25.90
2023-04-28T02:37:50.405Z,30.20
2023-04-28T02:40:18.402Z,26.20
2023-04-28T02:42:46.263Z,34.10
2023-04-28T02:45:14.152Z,25.70
2023-04-28T02:47:42.072Z,26.20
2023-04-28T02:50:10.422Z,28.90
2023-04-28T02:52:39.642Z,24.90
2023-04-28T02:55:07.966Z,31.60
2023-04-28T02:57:35.789Z,28.90
2023-04-28T03:00:03.637Z,36.30
2023-04-28T03:02:31.732Z,41.40
2023-04-28T03:04:59.640Z,28.70
2023-04-28T03:07:27.499Z,31.80
2023-04-28T03:09:56.761Z,28.70
2023-04-28T03:12:24.567Z,21.00
2023-04-28T03:14:52.462Z,30.40
2023-04-28T03:17:20.719Z,28.40
2023-04-28T03:19:48.619Z,29.00
2023-04-28T03:22:16.454Z,31.90
2023-04-28T03:24:44.308Z,26.00
2023-04-28T03:27:13.664Z,32.80
2023-04-28T03:29:41.542Z,24.30
2023-04-28T03:32:09.497Z,38.90
2023-04-28T03:34:37.689Z,23.30
2023-04-28T03:37:05.775Z,48.50
2023-04-28T03:39:33.743Z,41.10
2023-04-28T03:42:01.627Z,33.90
2023-04-28T03:44:31.369Z,33.50
2023-04-28T03:46:59.258Z,45.90
2023-04-28T03:49:27.136Z,31.20
2023-04-28T03:51:54.986Z,45.90
2023-04-28T03:54:22.839Z,41.90
2023-04-28T03:56:50.750Z,26.70
2023-04-28T03:59:18.649Z,41.00
2023-04-28T04:01:47.886Z,37.80
2023-04-28T04:04:16.205Z,50.70
2023-04-28T04:06:44.532Z,46.70
2023-04-28T04:09:12.441Z,38.00
2023-04-28T04:11:40.271Z,46.10
2023-04-28T04:14:08.141Z,49.50
2023-04-28T04:16:36.684Z,47.30
2023-04-28T04:19:05.908Z,46.00
2023-04-28T04:21:33.765Z,41.40
2023-04-28T04:24:01.701Z,38.60
2023-04-28T04:26:29.541Z,36.70
2023-04-28T04:28:57.413Z,35.00
2023-04-28T04:31:25.617Z,35.10
2023-04-28T04:33:53.550Z,37.30
2023-04-28T04:36:23.029Z,31.20
2023-04-28T04:38:52.506Z,32.20
2023-04-28T04:41:22.703Z,25.20
2023-04-28T04:43:50.668Z,29.40
2023-04-28T04:46:18.573Z,30.70
2023-04-28T04:48:46.515Z,29.20
2023-04-28T04:51:14.442Z,16.40
2023-04-28T04:53:43.663Z,24.60
2023-04-28T04:56:11.544Z,19.90
2023-04-28T04:58:39.371Z,25.90
2023-04-28T05:01:07.264Z,16.90
2023-04-28T05:03:35.208Z,18.80
2023-04-28T05:06:03.793Z,15.40
2023-04-28T05:08:31.648Z,17.10
2023-04-28T05:11:00.878Z,17.50
2023-04-28T05:13:28.724Z,14.70
2023-04-28T05:15:56.569Z,16.00
2023-04-28T05:18:24.444Z,10.10
2023-04-28T05:20:52.284Z,5.50
2023-04-28T05:23:20.256Z,4.30
2023-04-28T05:25:48.113Z,6.50
2023-04-28T05:28:17.348Z,2.20
2023-04-28T05:30:45.721Z,2.50
2023-04-28T05:33:13.910Z,1.30
2023-04-28T05:35:41.819Z,1.00
2023-04-28T05:38:09.678Z,1.00
2023-04-28T05:40:37.554Z,1.00
2023-04-28T05:43:05.405Z,1.00
2023-04-28T05:45:35.080Z,1.00
2023-04-28T05:48:05.109Z,1.00
2023-04-28T05:50:33.266Z,1.00
2023-04-28T05:53:01.126Z,1.00
2023-04-28T05:55:29.133Z,1.00
2023-04-28T05:57:57.152Z,1.00
2023-04-28T06:00:25.117Z,1.00
2023-04-28T06:02:54.455Z,1.00
2023-04-28T06:05:22.811Z,1.00
2023-04-28T06:07:51.970Z,1.00
2023-04-28T06:10:22.982Z,1.00
2023-04-28T06:12:50.863Z,1.00
2023-04-28T06:15:18.768Z,1.00
2023-04-28T06:17:46.847Z,1.00
2023-04-28T06:20:16.621Z,1.00
2023-04-28T06:22:44.506Z,1.00
2023-04-28T06:25:12.396Z,1.00
2023-04-28T06:27:40.479Z,1.00
2023-04-28T06:30:08.950Z,1.00
2023-04-28T06:32:36.868Z,1.00
2023-04-28T06:35:04.992Z,7.80
2023-04-28T06:37:34.221Z,10.90
2023-04-28T06:40:02.085Z,6.80
2023-04-28T06:42:29.960Z,6.50
2023-04-28T06:44:57.799Z,9.10
2023-04-28T06:47:25.737Z,8.10
2023-04-28T06:49:53.995Z,8.60
2023-04-28T06:52:24.890Z,6.10
2023-04-28T06:55:02.286Z,8.70
2023-04-28T06:57:30.155Z,9.50
2023-04-28T06:59:58.026Z,12.10
2023-04-28T07:02:26.401Z,14.90
2023-04-28T07:04:55.353Z,17.70
2023-04-28T07:07:23.210Z,18.00
2023-04-28T07:09:53.210Z,17.90
2023-04-28T07:12:22.513Z,18.30
2023-04-28T07:14:50.654Z,18.40
2023-04-28T07:17:18.512Z,19.80
2023-04-28T07:19:46.339Z,24.10
2023-04-28T07:22:14.209Z,21.90
2023-04-28T07:24:42.079Z,20.10
2023-04-28T07:27:09.958Z,17.00
2023-04-28T07:29:39.223Z,21.10
2023-04-28T07:32:08.666Z,21.40
2023-04-28T07:34:36.701Z,22.30
2023-04-28T07:37:05.029Z,19.40
2023-04-28T07:39:33.976Z,20.20
2023-04-28T07:42:02.808Z,21.40
2023-04-28T07:44:31.003Z,21.30
2023-04-28T07:47:00.757Z,21.00
2023-04-28T07:49:29.330Z,20.90
2023-04-28T07:51:57.295Z,20.20
2023-04-28T07:54:26.165Z,19.90
2023-04-28T07:56:54.058Z,18.30
2023-04-28T07:59:21.937Z,18.30
2023-04-28T08:01:49.851Z,17.40
2023-04-28T08:04:19.482Z,19.90
2023-04-28T08:06:47.743Z,18.60
2023-04-28T08:09:15.648Z,19.20
2023-04-28T08:11:43.559Z,19.50
2023-04-28T08:14:11.401Z,20.20
2023-04-28T08:16:41.400Z,18.20
2023-04-28T08:19:09.444Z,17.40
2023-04-28T08:21:38.674Z,15.50
2023-04-28T08:24:08.095Z,16.40
2023-04-28T08:26:36.027Z,15.60
2023-04-28T08:29:03.943Z,14.30
2023-04-28T08:31:32.035Z,16.30
2023-04-28T08:33:59.946Z,16.10
2023-04-28T08:36:31.807Z,16.10
2023-04-28T08:39:01.856Z,17.80
2023-04-28T08:41:33.301Z,17.40
2023-04-28T08:44:01.229Z,19.50
2023-04-28T08:46:29.295Z,20.40
2023-04-28T08:49:00.638Z,18.10
2023-04-28T08:51:34.080Z,17.60
2023-04-28T08:54:22.888Z,14.90
2023-04-28T08:56:53.258Z,16.10
2023-04-28T08:59:21.931Z,14.30
2023-04-28T09:01:50.078Z,13.40
2023-04-28T09:04:18.995Z,15.00
2023-04-28T09:06:47.558Z,15.50
2023-04-28T09:09:25.104Z,16.10
2023-04-28T09:11:54.000Z,15.90
2023-04-28T09:14:21.977Z,14.90
2023-04-28T09:16:50.210Z,15.70
2023-04-28T09:19:18.287Z,16.40
2023-04-28T09:21:50.469Z,16.10
2023-04-28T09:24:29.583Z,15.70
2023-04-28T09:26:57.485Z,16.20
2023-04-28T09:29:25.380Z,13.50
2023-04-28T09:31:54.313Z,16.90
2023-04-28T09:34:22.771Z,15.60
2023-04-28T09:36:50.736Z,13.50
2023-04-28T09:39:31.290Z,12.30
2023-04-28T09:42:03.405Z,11.90
2023-04-28T09:44:31.371Z,14.50
2023-04-28T09:46:59.262Z,9.20
2023-04-28T09:49:27.161Z,10.80
2023-04-28T09:51:55.250Z,11.90
2023-04-28T09:54:23.865Z,12.60
2023-04-28T09:56:55.686Z,10.60
2023-04-28T09:59:23.664Z,12.00
2023-04-28T10:01:51.595Z,10.30
2023-04-28T10:04:19.862Z,8.30
2023-04-28T10:06:48.056Z,9.70
2023-04-28T10:09:17.590Z,8.90
2023-04-28T10:11:46.111Z,9.90
2023-04-28T10:14:15.573Z,6.60
2023-04-28T10:16:43.648Z,9.00
2023-04-28T10:19:12.089Z,7.50
2023-04-28T10:21:43.188Z,11.40
2023-04-28T10:24:16.207Z,10.30
2023-04-28T10:27:03.094Z,11.30
2023-04-28T10:29:33.415Z,9.70
2023-04-28T10:32:17.486Z,10.20
2023-04-28T10:34:45.669Z,11.50
2023-04-28T10:37:15.236Z,10.30
2023-04-28T10:40:03.201Z,10.30
2023-04-28T10:42:51.944Z,10.40
2023-04-28T10:48:17.754Z,10.10
2023-04-28T10:51:18.330Z,11.10
2023-04-28T10:54:05.164Z,10.70
2023-04-28T10:56:32.993Z,10.20
2023-04-28T10:59:01.394Z,9.90
2023-04-28T11:01:30.903Z,10.20
2023-04-28T11:04:03.790Z,10.30
2023-04-28T11:06:34.435Z,10.80
2023-04-28T11:09:03.052Z,9.90
2023-04-28T11:11:32.677Z,11.30
2023-04-28T11:14:15.395Z,11.60
2023-04-28T11:16:49.541Z,12.70
2023-04-28T11:19:19.555Z,12.90
2023-04-28T11:21:48.176Z,14.00
2023-04-28T11:24:17.186Z,14.20
2023-04-28T11:26:45.389Z,15.10
2023-04-28T11:29:14.926Z,13.60
2023-04-28T11:31:50.187Z,13.90
2023-04-28T11:34:21.728Z,14.30
2023-04-28T11:36:49.615Z,14.70
2023-04-28T11:39:17.602Z,14.80
2023-04-28T11:41:46.183Z,14.00
2023-04-28T11:44:14.783Z,15.00
2023-04-28T11:46:46.321Z,14.40
2023-04-28T11:49:15.047Z,15.00
2023-04-28T11:51:45.955Z,14.90
2023-04-28T11:54:15.007Z,14.60
2023-04-28T11:56:44.830Z,15.30
2023-04-28T11:59:13.449Z,15.60
2023-04-28T12:01:48.583Z,16.40
2023-04-28T12:04:27.347Z,17.80
2023-04-28T12:07:06.949Z,19.40
2023-04-28T12:09:36.613Z,19.50
2023-04-28T12:12:05.128Z,18.10
2023-04-28T12:14:35.580Z,19.20
2023-04-28T12:17:04.062Z,20.40
2023-04-28T12:19:44.146Z,22.50
2023-04-28T12:22:17.573Z,21.50
2023-04-28T12:24:46.154Z,21.10
2023-04-28T12:27:22.088Z,23.10
2023-04-28T12:29:50.743Z,22.80
2023-04-28T12:32:20.174Z,22.30
2023-04-28T12:34:48.217Z,21.80
2023-04-28T12:37:17.552Z,23.50
2023-04-28T12:39:45.958Z,23.30
2023-04-28T12:42:14.030Z,24.20
2023-04-28T12:44:41.972Z,24.40
2023-04-28T12:47:11.185Z,24.20
2023-04-28T12:49:39.370Z,24.60
2023-04-28T12:52:07.777Z,24.60
2023-04-28T12:54:37.129Z,24.80
2023-04-28T12:57:05.504Z,22.20
2023-04-28T12:59:33.484Z,20.50
2023-04-28T13:02:01.388Z,18.90
2023-04-28T13:04:30.007Z,14.60
2023-04-28T13:06:58.489Z,12.60
2023-04-28T13:09:26.718Z,10.80
2023-04-28T13:11:56.033Z,1.90
2023-04-28T13:14:24.056Z,1.00
2023-04-28T13:16:53.201Z,1.00
2023-04-28T13:19:21.136Z,1.00
2023-04-28T13:21:49.004Z,1.00
2023-04-28T13:24:16.952Z,1.00
2023-04-28T13:26:45.289Z,1.00
2023-04-28T13:29:15.353Z,1.00
2023-04-28T13:31:43.266Z,1.00
2023-04-28T13:34:15.980Z,1.00
2023-04-28T13:36:44.503Z,6.00
2023-04-28T13:39:14.588Z,12.00
2023-04-28T13:41:42.872Z,1.00
2023-04-28T13:44:10.783Z,1.00
2023-04-28T13:46:40.100Z,1.00
2023-04-28T13:49:07.965Z,1.00
2023-04-28T13:51:35.906Z,1.50
2023-04-28T13:54:04.717Z,8.00
2023-04-28T13:56:32.888Z,4.70
2023-04-28T13:59:01.049Z,1.00
2023-04-28T14:01:29.100Z,1.70
2023-04-28T14:03:58.640Z,12.00
2023-04-28T14:06:27.976Z,13.30
2023-04-28T14:08:55.836Z,5.80
2023-04-28T14:11:23.773Z,6.60
2023-04-28T14:13:51.719Z,8.00
2023-04-28T14:16:19.970Z,1.00
2023-04-28T14:18:47.895Z,5.60
2023-04-28T14:21:17.067Z,8.10
2023-04-28T14:23:44.940Z,5.20
2023-04-28T14:26:12.923Z,6.60
2023-04-28T14:28:40.852Z,8.80
2023-04-28T14:31:09.225Z,6.00
2023-04-28T14:33:37.761Z,21.80
2023-04-28T14:36:06.077Z,29.10
2023-04-28T14:38:35.770Z,18.30
2023-04-28T14:41:04.491Z,30.80
2023-04-28T14:43:32.332Z,19.90
2023-04-28T14:46:00.338Z,17.90
2023-04-28T14:48:28.296Z,4.40
2023-04-28T14:50:56.143Z,5.30
2023-04-28T14:53:24.776Z,13.10
2023-04-28T14:55:55.999Z,12.50
2023-04-28T14:58:25.792Z,18.00
2023-04-28T15:00:54.042Z,25.90
2023-04-28T15:03:22.071Z,17.00
2023-04-28T15:05:50.114Z,29.30
2023-04-28T15:08:17.978Z,23.70
2023-04-28T15:10:46.007Z,43.00
2023-04-28T15:13:15.223Z,73.00
2023-04-28T15:15:43.141Z,65.60
2023-04-28T15:18:11.136Z,86.10
2023-04-28T15:20:39.370Z,48.80
2023-04-28T15:23:07.229Z,41.40
2023-04-28T15:25:35.301Z,45.40
2023-04-28T15:28:07.044Z,40.00
2023-04-28T15:30:36.583Z,57.30
2023-04-28T15:33:04.570Z,58.80
2023-04-28T15:35:33.406Z,63.40
2023-04-28T15:38:01.926Z,53.30
2023-04-28T15:40:29.804Z,53.50
2023-04-28T15:42:57.971Z,47.50
2023-04-28T15:45:25.919Z,45.20
2023-04-28T15:47:55.740Z,43.30
2023-04-28T15:50:24.123Z,48.50
2023-04-28T15:52:52.310Z,59.90
2023-04-28T15:55:21.640Z,52.70
2023-04-28T15:57:49.633Z,46.20
2023-04-28T16:00:17.568Z,58.30
2023-04-28T16:02:46.095Z,60.70
2023-04-28T16:05:15.583Z,52.90
2023-04-28T16:07:44.284Z,69.90
2023-04-28T16:10:13.222Z,54.00
2023-04-28T16:12:41.840Z,56.00
2023-04-28T16:15:10.954Z,67.40
2023-04-28T16:17:39.042Z,77.90
2023-04-28T16:20:07.640Z,68.90
2023-04-28T16:22:37.632Z,68.00
2023-04-28T16:25:06.321Z,70.40
2023-04-28T16:27:34.552Z,69.30
2023-04-28T16:30:02.391Z,63.30
2023-04-28T16:32:30.595Z,69.30
2023-04-28T16:34:58.732Z,50.20
2023-04-28T16:37:26.895Z,62.20
2023-04-28T16:39:56.672Z,57.00
2023-04-28T16:42:24.621Z,52.00
2023-04-28T16:44:53.056Z,65.80
2023-04-28T16:47:21.327Z,58.80
2023-04-28T16:49:49.453Z,57.30
2023-04-28T16:52:17.822Z,54.50
2023-04-28T16:54:45.753Z,47.00
2023-04-28T16:57:15.219Z,49.70
2023-04-28T16:59:43.096Z,50.00
2023-04-28T17:02:11.011Z,60.70
2023-04-28T17:04:39.027Z,58.00
2023-04-28T17:07:07.348Z,66.00
2023-04-28T17:09:35.211Z,61.40
2023-04-28T17:12:03.891Z,52.60
2023-04-28T17:14:33.175Z,57.90
2023-04-28T17:17:01.028Z,58.40
2023-04-28T17:19:28.969Z,58.30
2023-04-28T17:21:56.891Z,68.20
2023-04-28T17:24:24.716Z,62.60
2023-04-28T17:26:52.615Z,57.00
2023-04-28T17:29:22.096Z,71.60
2023-04-28T17:31:51.941Z,67.70
2023-04-28T17:34:20.060Z,58.30
2023-04-28T17:36:47.920Z,62.40
2023-04-28T17:39:16.686Z,59.60
2023-04-28T17:41:45.079Z,71.10
2023-04-28T17:44:13.177Z,59.50
2023-04-28T17:46:41.226Z,61.90
2023-04-28T17:49:10.970Z,74.60
2023-04-28T17:51:38.843Z,73.40
2023-04-28T17:54:09.574Z,75.70
2023-04-28T17:56:37.874Z,76.30
2023-04-28T17:59:08.176Z,61.60
2023-04-28T18:01:36.255Z,68.80
2023-04-28T18:04:04.194Z,70.30
2023-04-28T18:06:33.411Z,58.30
2023-04-28T18:09:01.317Z,78.00
2023-04-28T18:11:29.211Z,72.00
2023-04-28T18:13:58.693Z,75.90
2023-04-28T18:16:26.973Z,73.40
2023-04-28T18:18:54.874Z,68.60
2023-04-28T18:21:22.731Z,57.50
2023-04-28T18:23:51.949Z,70.10
2023-04-28T18:26:20.943Z,80.80
2023-04-28T18:28:49.042Z,80.30
2023-04-28T18:31:17.053Z,83.20
2023-04-28T18:33:45.102Z,81.80
2023-04-28T18:36:13.029Z,84.80
2023-04-28T18:38:41.287Z,82.50
2023-04-28T18:41:16.994Z,87.50
2023-04-28T18:43:44.926Z,82.40
2023-04-28T18:46:12.878Z,88.40
2023-04-28T18:48:41.160Z,82.10
2023-04-28T18:51:08.995Z,83.10
2023-04-28T18:53:37.123Z,85.80
2023-04-28T18:56:05.145Z,87.90
2023-04-28T18:58:37.045Z,85.40
2023-04-28T19:01:05.024Z,86.50
2023-04-28T19:03:33.404Z,90.10
2023-04-28T19:06:01.449Z,76.60
2023-04-28T19:08:29.351Z,74.90
2023-04-28T19:10:58.442Z,67.40
2023-04-28T19:13:26.404Z,65.20
2023-04-28T19:15:56.249Z,78.00
2023-04-28T19:18:24.121Z,80.50
2023-04-28T19:20:59.165Z,82.60
2023-04-28T19:23:27.040Z,85.20
2023-04-28T19:25:56.301Z,89.00
2023-04-28T19:28:25.923Z,90.40
2023-04-28T19:30:55.738Z,91.00
2023-04-28T19:33:26.197Z,93.70
2023-04-28T19:35:55.775Z,92.70
2023-04-28T19:38:23.904Z,93.50
2023-04-28T19:40:52.126Z,92.60
2023-04-28T19:43:19.948Z,92.80
2023-04-28T19:45:47.853Z,92.40
2023-04-28T19:48:18.458Z,91.70
2023-04-28T19:50:46.637Z,91.70
2023-04-28T19:53:14.981Z,92.10
2023-04-28T19:55:42.934Z,93.30
2023-04-28T19:58:11.219Z,92.40
2023-04-28T20:00:39.108Z,92.20
2023-04-28T20:03:07.080Z,90.50
2023-04-28T20:05:38.176Z,91.40
2023-04-28T20:08:06.120Z,94.30
2023-04-28T20:10:34.003Z,94.60
2023-04-28T20:13:02.535Z,93.90
2023-04-28T20:15:30.629Z,94.60
2023-04-28T20:17:58.478Z,96.20
2023-04-28T20:20:26.631Z,94.70
2023-04-28T20:22:55.836Z,94.40
2023-04-28T20:25:23.795Z,95.00
2023-04-28T20:27:51.641Z,94.60
2023-04-28T20:30:19.494Z,94.50
2023-04-28T20:32:48.645Z,95.60
2023-04-28T20:35:17.520Z,94.20
2023-04-28T20:37:45.374Z,93.40
2023-04-28T20:40:15.355Z,95.70
2023-04-28T20:42:43.189Z,95.70
2023-04-28T20:45:11.483Z,93.00
2023-04-28T20:47:39.337Z,93.40
2023-04-28T20:50:10.812Z,94.00
2023-04-28T20:52:39.011Z,94.20
2023-04-28T20:55:07.290Z,95.50
2023-04-28T20:57:36.513Z,95.40
2023-04-28T21:00:05.212Z,95.50
2023-04-28T21:02:33.193Z,95.30
2023-04-28T21:05:01.725Z,97.00
2023-04-28T21:07:29.556Z,96.60
2023-04-28T21:09:58.053Z,95.50
2023-04-28T21:12:25.927Z,95.50
2023-04-28T21:14:55.135Z,93.90
2023-04-28T21:17:23.071Z,95.20
2023-04-28T21:19:51.455Z,94.20
2023-04-28T21:22:19.596Z,96.70
2023-04-28T21:24:47.548Z,93.40
2023-04-28T21:27:15.369Z,95.10
2023-04-28T21:29:43.217Z,97.70
2023-04-28T21:32:13.161Z,99.10
2023-04-28T21:34:41.005Z,94.90
2023-04-28T21:37:08.859Z,95.80
2023-04-28T21:39:36.880Z,96.30
2023-04-28T21:42:05.811Z,97.10
2023-04-28T21:44:33.665Z,99.90
2023-04-28T21:47:01.526Z,99.90
2023-04-28T21:49:30.722Z,95.10
2023-04-28T21:51:58.630Z,96.20
2023-04-28T21:54:26.456Z,96.00
2023-04-28T21:56:54.284Z,97.10
2023-04-28T21:59:22.152Z,98.40
2023-04-28T22:01:50.634Z,97.00
2023-04-28T22:04:18.778Z,97.90
2023-04-28T22:06:48.145Z,94.80
2023-04-28T22:09:16.027Z,95.80
2023-04-28T22:11:43.867Z,95.00
2023-04-28T22:14:15.251Z,96.30
2023-04-28T22:16:49.717Z,95.70
2023-04-28T22:19:17.968Z,97.60
2023-04-28T22:21:45.866Z,99.60
2023-04-28T22:24:16.632Z,99.10
2023-04-28T22:26:46.126Z,94.60
2023-04-28T22:29:13.962Z,97.30
2023-04-28T22:31:41.817Z,95.90
2023-04-28T22:34:10.387Z,95.90
2023-04-28T22:36:38.306Z,98.20
2023-04-28T22:39:06.378Z,99.80
2023-04-28T22:41:35.658Z,98.90
2023-04-28T22:44:03.490Z,99.90
2023-04-28T22:46:31.374Z,98.00
2023-04-28T22:48:59.262Z,97.70
2023-04-28T22:51:27.109Z,99.10
2023-04-28T22:53:55.561Z,99.90
2023-04-28T22:56:23.394Z,99.90
2023-04-28T22:58:52.596Z,99.90
2023-04-28T23:01:20.534Z,99.90
2023-04-28T23:03:50.649Z,99.90
2023-04-28T23:06:18.660Z,99.90
2023-04-28T23:08:46.539Z,99.90
2023-04-28T23:11:14.612Z,99.90
2023-04-28T23:13:42.483Z,99.90
2023-04-28T23:16:11.743Z,99.90
2023-04-28T23:18:39.700Z,99.90
2023-04-28T23:21:08.041Z,99.90
2023-04-28T23:23:36.144Z,99.90
2023-04-28T23:26:05.332Z,99.90
2023-04-28T23:28:33.240Z,99.90
2023-04-28T23:31:01.121Z,99.90
2023-04-28T23:33:30.577Z,99.90
2023-04-28T23:35:58.453Z,99.90
2023-04-28T23:38:26.611Z,99.90
2023-04-28T23:40:54.745Z,99.90
2023-04-28T23:43:22.583Z,99.90
2023-04-28T23:45:50.464Z,99.90
2023-04-28T23:48:18.516Z,99.90
2023-04-28T23:50:48.081Z,99.90
2023-04-28T23:53:15.939Z,99.90
2023-04-28T23:55:43.772Z,99.90
2023-04-28T23:58:11.659Z,99.90
